Terminal Aerodrome Forecast
Issued by NWS

Home | Current Version | Previous Version | Text Only | Print | Product List | Glossary On
Versions: 1 2 3 4 5 6 7 8 9 10 11 12 13 14
000
FTUS46 KPDT 231100
TAFBDN
TAF
KBDN 231120Z 2312/2412 21006KT P6SM BKN080 OVC110
     FM231900 33010KT P6SM VCSH BKN070 OVC090
     FM240600 21005KT P6SM -SHRA BKN050 OVC070=

USA.gov is the U.S. government's official web portal to all federal, state and local government web resources and services.